Time;durP1;ratioP1;P1;durP2;ratioP2;P2;SDS_P1;SDS_P2;PMS_P1;PMS_P2;Temp;Humidity;BMP_temperature;BMP_pressure;BME280_temperature;BME280_humidity;BME280_pressure;Samples;Min_cycle;Max_cycle;Signal;HPM_P1;HPM_P2
2022/10/22 00:00:12;;;;;;;0.63;0.30;;;;;;;19.59;49.84;100766.88;16125587;19;130445;-39
2022/10/22 00:05:33;;;;;;;0.30;0.20;;;;;;;19.58;49.97;100767.16;16125696;19;129230;-39
2022/10/22 00:10:55;;;;;;;0.75;0.30;;;;;;;19.57;50.00;100769.09;16128247;19;130162;-39
2022/10/22 00:16:17;;;;;;;1.20;0.40;;;;;;;19.57;49.71;100769.09;16125855;19;129616;-39
2022/10/22 00:21:38;;;;;;;0.30;0.30;;;;;;;19.56;49.81;100770.22;16126621;19;129431;-39
2022/10/22 00:27:01;;;;;;;1.95;0.30;;;;;;;19.57;49.79;100782.13;16126818;19;129854;-39
2022/10/22 00:32:23;;;;;;;1.30;0.57;;;;;;;19.56;49.93;100792.41;16124661;19;129367;-39
2022/10/22 00:37:45;;;;;;;0.47;0.20;;;;;;;19.55;50.03;100793.50;16123565;19;129872;-39
2022/10/22 00:43:11;;;;;;;0.55;0.20;;;;;;;19.56;50.00;100795.19;16122372;19;129720;-39
2022/10/22 00:48:33;;;;;;;0.30;0.10;;;;;;;19.53;49.95;100799.28;16125656;19;129421;-41
2022/10/22 00:54:02;;;;;;;0.50;0.28;;;;;;;19.54;49.84;100805.69;16123136;19;129759;-42
2022/10/22 00:59:23;;;;;;;0.73;0.28;;;;;;;19.53;49.47;100806.78;16122522;19;129306;-40
2022/10/22 01:04:45;;;;;;;0.75;0.43;;;;;;;19.53;49.46;100796.50;16124062;19;129640;-40
2022/10/22 01:10:24;;;;;;;0.47;0.30;;;;;;;19.53;49.40;100795.69;16124271;19;129571;-39
2022/10/22 01:15:55;;;;;;;0.20;0.20;;;;;;;19.52;49.64;100800.38;16125228;19;130172;-39
2022/10/22 01:21:30;;;;;;;0.77;0.20;;;;;;;19.52;49.89;100796.78;16123319;19;130599;-40
2022/10/22 01:27:11;;;;;;;1.67;0.37;;;;;;;19.51;49.46;100793.16;16118860;19;129580;-39
2022/10/22 01:32:39;;;;;;;0.40;0.20;;;;;;;19.51;49.43;100793.16;16120261;19;129952;-39
2022/10/22 01:38:06;;;;;;;1.42;0.30;;;;;;;19.50;49.63;100801.72;16123016;19;133293;-39
2022/10/22 01:43:28;;;;;;;0.80;0.35;;;;;;;19.50;49.96;100798.97;16118442;19;129873;-39
2022/10/22 01:49:36;;;;;;;1.30;0.30;;;;;;;19.48;49.67;100804.78;16121684;19;129713;-40
2022/10/22 01:55:18;;;;;;;1.58;0.52;;;;;;;19.50;49.77;100804.50;16112329;19;130027;-39
2022/10/22 02:01:06;;;;;;;1.55;0.28;;;;;;;19.48;49.65;100803.91;16115188;19;130026;-40
2022/10/22 02:06:29;;;;;;;1.45;0.40;;;;;;;19.47;49.38;100803.09;16109413;19;129824;-40
2022/10/22 02:11:52;;;;;;;0.88;0.32;;;;;;;19.48;49.89;100806.69;16111197;19;129612;-39
2022/10/22 02:17:18;;;;;;;0.22;0.20;;;;;;;19.47;49.81;100803.09;16109254;19;129703;-39
2022/10/22 02:22:41;;;;;;;0.40;0.40;;;;;;;19.47;49.78;100811.41;16110943;19;130765;-39
2022/10/22 02:28:03;;;;;;;0.70;0.30;;;;;;;19.46;49.64;100812.50;16114531;19;129669;-39
2022/10/22 02:33:33;;;;;;;0.60;0.28;;;;;;;19.46;49.78;100818.06;16115257;19;129355;-39
2022/10/22 02:38:55;;;;;;;0.40;0.30;;;;;;;19.47;49.56;100816.09;16135189;19;128964;-39
2022/10/22 02:44:21;;;;;;;1.10;0.30;;;;;;;19.46;49.81;100819.97;16130443;19;129679;-40
2022/10/22 02:49:42;;;;;;;0.90;0.30;;;;;;;19.44;49.75;100820.25;16134218;19;129542;-39
2022/10/22 02:55:05;;;;;;;1.27;0.40;;;;;;;19.45;49.60;100824.69;16132404;19;129787;-45
2022/10/22 03:00:27;;;;;;;2.17;0.60;;;;;;;19.45;49.17;100833.03;16130592;19;129908;-39
2022/10/22 03:05:50;;;;;;;0.68;0.20;;;;;;;19.44;49.46;100836.06;16130982;19;130054;-39
2022/10/22 03:11:11;;;;;;;0.88;0.15;;;;;;;19.43;49.31;100826.88;16129552;19;129204;-40
2022/10/22 03:16:33;;;;;;;0.50;0.20;;;;;;;19.43;49.45;100829.66;16129876;19;129936;-39
2022/10/22 03:22:01;;;;;;;0.20;0.17;;;;;;;19.43;49.26;100835.22;16130307;19;129905;-39
2022/10/22 03:27:23;;;;;;;0.43;0.38;;;;;;;19.43;49.59;100843.53;16132247;19;130128;-39
2022/10/22 03:32:45;;;;;;;0.88;0.20;;;;;;;19.42;49.62;100863.22;16129993;19;129545;-40
2022/10/22 03:38:07;;;;;;;0.75;0.30;;;;;;;19.42;49.27;100861.25;16127144;19;129359;-39
2022/10/22 03:43:28;;;;;;;0.63;0.30;;;;;;;19.42;49.35;100865.97;16126065;19;129531;-39
2022/10/22 03:48:50;;;;;;;0.82;0.25;;;;;;;19.42;49.29;100860.44;16127430;19;129338;-39
2022/10/22 03:54:12;;;;;;;0.73;0.20;;;;;;;19.41;49.35;100858.75;16126077;19;129128;-40
2022/10/22 03:59:42;;;;;;;0.52;0.22;;;;;;;19.42;49.39;100871.53;16127335;19;129459;-39
2022/10/22 04:05:04;;;;;;;0.45;0.30;;;;;;;19.39;49.57;100861.75;16127649;19;129850;-39
2022/10/22 04:10:26;;;;;;;0.40;0.20;;;;;;;19.40;49.69;100871.78;16126336;19;129478;-39
2022/10/22 04:15:48;;;;;;;1.85;0.40;;;;;;;19.40;49.28;100882.03;16126064;19;129919;-40
2022/10/22 04:21:12;;;;;;;0.43;0.30;;;;;;;19.39;49.74;100883.97;16125703;19;129761;-39
2022/10/22 04:26:34;;;;;;;0.70;0.50;;;;;;;19.39;49.23;100878.41;16127752;19;129813;-40
2022/10/22 04:31:55;;;;;;;0.30;0.20;;;;;;;19.38;49.31;100883.13;16125586;19;129740;-39
2022/10/22 04:37:17;;;;;;;0.20;0.20;;;;;;;19.38;49.45;100883.13;16124431;19;129521;-39
2022/10/22 04:42:39;;;;;;;0.57;0.22;;;;;;;19.38;49.73;100879.53;16123000;19;130909;-39
2022/10/22 04:48:01;;;;;;;0.68;0.22;;;;;;;19.37;49.38;100886.16;16123677;19;129541;-39
2022/10/22 04:53:23;;;;;;;0.98;0.30;;;;;;;19.38;49.68;100885.06;16123609;19;129949;-39
2022/10/22 04:58:45;;;;;;;0.70;0.30;;;;;;;19.37;49.52;100897.25;16126810;19;130238;-39
2022/10/22 05:04:09;;;;;;;0.85;0.30;;;;;;;19.37;49.66;100903.63;16124963;19;129880;-40
2022/10/22 05:09:31;;;;;;;1.25;0.30;;;;;;;19.37;49.70;100905.59;16123808;19;129553;-39
2022/10/22 05:14:53;;;;;;;0.73;0.35;;;;;;;19.36;49.51;100913.06;16120988;19;129812;-39
2022/10/22 05:20:14;;;;;;;1.08;0.30;;;;;;;19.36;49.47;100915.81;16122697;19;130506;-39
2022/10/22 05:25:39;;;;;;;0.65;0.40;;;;;;;19.36;49.28;100921.38;16124659;19;134534;-39
2022/10/22 05:31:01;;;;;;;0.90;0.30;;;;;;;19.35;49.22;100928.00;16123747;19;129891;-39
2022/10/22 05:36:23;;;;;;;1.17;0.38;;;;;;;19.34;49.77;100923.56;16121769;19;129647;-39
2022/10/22 05:41:45;;;;;;;1.08;0.30;;;;;;;19.33;49.38;100930.19;16122187;19;129201;-40
2022/10/22 05:47:08;;;;;;;0.75;0.30;;;;;;;19.32;49.79;100939.59;16122165;19;129841;-39
2022/10/22 05:52:30;;;;;;;1.10;0.30;;;;;;;19.35;49.52;100943.84;16121263;19;129365;-39
2022/10/22 05:57:52;;;;;;;0.70;0.30;;;;;;;19.52;49.40;100947.44;16118974;19;129946;-39
2022/10/22 06:03:13;;;;;;;2.50;0.30;;;;;;;19.69;48.95;100954.94;16119968;19;130158;-39
2022/10/22 06:08:35;;;;;;;0.40;0.22;;;;;;;19.81;49.19;100957.63;16120699;19;129711;-39
2022/10/22 06:13:57;;;;;;;0.90;0.40;;;;;;;19.86;48.69;100967.97;16136595;19;129858;-39
2022/10/22 06:19:21;;;;;;;0.38;0.20;;;;;;;19.86;48.65;100971.56;16136417;19;129732;-39
2022/10/22 06:24:43;;;;;;;0.65;0.30;;;;;;;19.86;48.84;100982.69;16135678;19;129049;-39
2022/10/22 06:30:06;;;;;;;1.17;0.30;;;;;;;19.84;49.11;100984.84;16138662;19;130432;-39
2022/10/22 06:35:28;;;;;;;5.75;0.65;;;;;;;19.83;48.61;101002.59;16132419;19;128981;-39
2022/10/22 06:40:49;;;;;;;1.30;0.55;;;;;;;19.79;48.65;101015.34;16137009;19;129693;-39
2022/10/22 06:46:13;;;;;;;9.27;0.70;;;;;;;19.77;48.58;101017.50;16134391;19;131410;-40
2022/10/22 06:51:40;;;;;;;7.38;0.75;;;;;;;19.72;49.05;101021.03;16134690;19;130799;-39
2022/10/22 06:57:02;;;;;;;5.65;0.98;;;;;;;19.67;48.72;101024.59;16129751;19;130572;-39
2022/10/22 07:02:24;;;;;;;3.67;0.80;;;;;;;19.67;48.47;101040.38;16128748;19;129430;-39
2022/10/22 07:07:46;;;;;;;2.60;0.95;;;;;;;19.65;48.52;101040.63;16132841;19;130213;-39
2022/10/22 07:13:08;;;;;;;4.00;0.77;;;;;;;19.65;48.79;101048.97;16127521;19;131144;-40
2022/10/22 07:18:30;;;;;;;4.68;0.80;;;;;;;19.65;48.52;101051.75;16129002;19;129825;-41
2022/10/22 07:23:52;;;;;;;7.57;0.80;;;;;;;19.65;48.79;101064.75;16129000;19;129297;-41
2022/10/22 07:29:17;;;;;;;4.43;0.80;;;;;;;19.63;48.84;101070.56;16132958;19;130423;-41
2022/10/22 07:34:38;;;;;;;3.33;0.90;;;;;;;19.63;49.16;101083.63;16131479;19;130767;-43
2022/10/22 07:40:04;;;;;;;;;;;;;;;19.60;49.27;101090.50;16131460;19;129544;-42
2022/10/22 07:45:26;;;;;;;5.68;0.77;;;;;;;19.65;49.12;101082.28;16128343;19;129793;-41
2022/10/22 07:50:49;;;;;;;9.57;1.02;;;;;;;19.78;49.24;101096.94;16130026;19;129592;-41
2022/10/22 07:56:11;;;;;;;9.52;1.40;;;;;;;20.19;48.50;101105.97;16128895;19;131415;-43
2022/10/22 08:01:33;;;;;;;5.97;1.63;;;;;;;21.02;46.75;101115.56;16128902;19;129252;-42
2022/10/22 08:06:54;;;;;;;13.70;2.03;;;;;;;20.80;47.61;101118.31;16127784;19;129612;-42
2022/10/22 08:12:16;;;;;;;9.57;2.47;;;;;;;20.51;48.23;101127.59;16121333;19;130254;-42
2022/10/22 08:17:38;;;;;;;31.65;2.83;;;;;;;20.38;48.58;101144.63;16117535;19;130905;-44
2022/10/22 08:23:00;;;;;;;11.75;2.50;;;;;;;20.27;48.90;101149.16;16127286;19;130175;-42
2022/10/22 08:28:22;;;;;;;9.85;2.28;;;;;;;20.16;49.54;101162.06;16124879;19;130745;-42
2022/10/22 08:33:44;;;;;;;10.15;2.25;;;;;;;20.07;49.60;101167.16;16127842;19;130487;-42
2022/10/22 08:39:06;;;;;;;5.18;1.83;;;;;;;20.00;49.73;101172.03;16124660;19;129952;-42
2022/10/22 08:44:39;;;;;;;8.20;2.30;;;;;;;19.95;49.84;101186.63;16124948;19;129707;-43
2022/10/22 08:50:01;;;;;;;10.52;1.98;;;;;;;19.89;50.42;101193.19;16124409;19;130051;-42
2022/10/22 08:55:24;;;;;;;11.18;1.90;;;;;;;19.88;50.17;101207.34;16121947;19;131451;-43
2022/10/22 09:00:58;;;;;;;10.18;2.22;;;;;;;19.86;50.16;101210.34;16124200;19;129277;-41
2022/10/22 09:06:25;;;;;;;10.38;1.70;;;;;;;19.83;50.55;101200.59;16121941;19;129997;-43
2022/10/22 09:11:50;;;;;;;12.52;1.88;;;;;;;19.83;50.61;101214.47;16124607;19;130231;-44
2022/10/22 09:17:28;;;;;;;10.70;1.53;;;;;;;19.82;50.54;101220.25;16121031;19;130898;-47
2022/10/22 09:23:01;;;;;;;14.43;2.20;;;;;;;19.82;51.06;101225.78;16121460;19;129676;-41
2022/10/22 09:28:23;;;;;;;17.65;2.17;;;;;;;19.81;50.66;101230.53;16123688;19;129550;-41
2022/10/22 09:33:47;;;;;;;13.00;1.52;;;;;;;19.88;50.62;101235.09;16124817;19;129585;-41
2022/10/22 09:39:45;;;;;;;10.85;1.83;;;;;;;19.88;50.41;101238.69;16122962;19;129560;-41
2022/10/22 09:45:23;;;;;;;14.00;1.80;;;;;;;19.88;50.29;101244.25;16113408;19;130033;-41
2022/10/22 09:50:48;;;;;;;10.93;1.80;;;;;;;19.86;50.75;101253.94;16111986;19;130591;-42
2022/10/22 09:56:37;;;;;;;14.10;1.88;;;;;;;19.90;50.64;101266.22;16111620;19;129816;-42
2022/10/22 10:02:10;;;;;;;8.95;1.92;;;;;;;19.91;50.56;101267.91;16112027;19;129349;-42
2022/10/22 10:07:47;;;;;;;6.00;1.35;;;;;;;19.90;50.45;101278.19;16110015;19;130537;-41
2022/10/22 10:13:34;;;;;;;25.63;3.20;;;;;;;19.88;50.21;101280.34;16108039;19;130485;-41
2022/10/22 10:19:19;;;;;;;19.48;2.00;;;;;;;19.91;50.79;101296.53;16108174;19;134754;-39
2022/10/22 10:24:49;;;;;;;12.82;1.85;;;;;;;19.92;50.30;101303.78;16118432;19;129525;-40
2022/10/22 10:30:19;;;;;;;13.30;1.80;;;;;;;19.95;50.77;101303.25;16116046;19;130142;-41
2022/10/22 10:35:44;;;;;;;13.85;1.88;;;;;;;19.97;50.68;101316.91;16121354;19;133636;-42
2022/10/22 10:41:27;;;;;;;13.65;2.00;;;;;;;20.02;50.39;101313.44;16116122;19;129514;-43
2022/10/22 10:47:33;;;;;;;11.25;1.98;;;;;;;20.04;50.48;101302.91;16113354;19;129959;-41
2022/10/22 10:52:58;;;;;;;14.10;1.77;;;;;;;20.05;50.08;101301.84;16110745;19;129973;-41
2022/10/22 10:58:55;;;;;;;9.48;1.27;;;;;;;20.08;50.18;101301.31;16125575;19;129129;-42
2022/10/22 11:04:49;;;;;;;9.85;1.95;;;;;;;20.06;49.66;101301.56;16130904;19;129737;-41
2022/10/22 11:10:28;;;;;;;5.25;1.30;;;;;;;20.06;49.75;101292.41;16129393;19;129916;-41
2022/10/22 11:16:28;;;;;;;6.97;1.15;;;;;;;20.06;49.74;101295.19;16130888;19;129967;-43
2022/10/22 11:21:59;;;;;;;11.40;1.92;;;;;;;20.05;49.95;101286.00;16119216;19;129649;-42
2022/10/22 11:27:47;;;;;;;10.40;1.75;;;;;;;20.05;49.76;101288.78;16118320;19;132916;-42
2022/10/22 11:33:14;;;;;;;13.43;1.73;;;;;;;20.03;49.95;101287.34;16116392;19;129956;-45
2022/10/22 11:38:37;;;;;;;9.32;1.77;;;;;;;20.04;49.68;101291.81;16113318;19;129382;-42
2022/10/22 11:44:18;;;;;;;9.88;1.52;;;;;;;20.03;49.41;101293.72;16121382;19;130194;-45
2022/10/22 11:49:45;;;;;;;11.15;1.50;;;;;;;20.01;49.98;101309.78;16118831;19;130031;-47
2022/10/22 11:55:29;;;;;;;6.90;1.40;;;;;;;19.99;49.79;101321.16;16116669;19;131073;-43
2022/10/22 12:00:51;;;;;;;11.55;1.30;;;;;;;19.98;49.45;101318.59;16124592;19;128953;-43
2022/10/22 12:06:18;;;;;;;3.70;1.20;;;;;;;19.98;49.53;101319.44;16125824;19;129659;-42
2022/10/22 12:11:49;;;;;;;3.83;0.98;;;;;;;19.97;50.02;101320.53;16124819;19;129998;-43
2022/10/22 12:17:14;;;;;;;6.68;1.20;;;;;;;19.95;49.58;101319.91;16125395;19;129596;-42
2022/10/22 12:22:37;;;;;;;4.73;1.27;;;;;;;19.94;49.68;101312.69;16126783;19;129481;-43
2022/10/22 12:27:59;;;;;;;7.15;1.30;;;;;;;19.95;50.05;101311.59;16125651;19;129822;-44
2022/10/22 12:33:22;;;;;;;4.72;0.90;;;;;;;19.96;49.44;101309.66;16130658;19;135005;-43
2022/10/22 12:38:47;;;;;;;4.15;0.85;;;;;;;19.95;49.83;101311.59;16125359;19;129714;-45
2022/10/22 12:44:14;;;;;;;8.30;0.90;;;;;;;19.93;49.83;101311.00;16116605;19;130673;-43
2022/10/22 12:49:39;;;;;;;3.70;1.00;;;;;;;19.93;49.72;101307.38;16124032;19;131208;-43
2022/10/22 12:55:07;;;;;;;5.53;1.13;;;;;;;19.93;49.64;101299.03;16126232;19;132140;-42
2022/10/22 13:00:33;;;;;;;3.53;0.65;;;;;;;19.89;49.52;101295.94;16124093;19;130087;-42
2022/10/22 13:05:55;;;;;;;3.50;0.60;;;;;;;19.88;49.98;101294.22;16119611;19;129126;-43
2022/10/22 13:11:19;;;;;;;7.40;1.00;;;;;;;19.88;50.08;101285.06;16119602;19;129910;-44
2022/10/22 13:17:01;;;;;;;;;;;;;;;19.84;50.13;101290.25;16124101;19;129435;-44
2022/10/22 13:22:29;;;;;;;2.70;0.50;;;;;;;19.87;49.97;101289.78;16117799;19;129822;-44
2022/10/22 13:27:54;;;;;;;3.03;0.50;;;;;;;19.86;50.10;101271.41;16120503;19;131286;-43
2022/10/22 13:33:26;;;;;;;1.45;0.30;;;;;;;19.87;49.83;101283.38;16118255;19;133986;-42
2022/10/22 13:38:49;;;;;;;2.15;0.60;;;;;;;19.85;49.82;101283.63;16119527;19;129593;-42
2022/10/22 13:44:11;;;;;;;2.85;0.75;;;;;;;19.84;49.92;101285.56;16118755;19;129639;-46
2022/10/22 13:49:32;;;;;;;2.67;0.40;;;;;;;19.84;49.92;101285.56;16121404;19;129850;-44
2022/10/22 13:54:54;;;;;;;2.45;0.55;;;;;;;19.84;50.21;101287.47;16120613;19;129437;-43
2022/10/22 14:00:19;;;;;;;2.60;0.60;;;;;;;19.84;49.77;101284.69;16121227;19;133949;-45
2022/10/22 14:05:40;;;;;;;2.42;0.52;;;;;;;19.85;50.22;101297.50;16121296;19;129864;-43
2022/10/22 14:11:02;;;;;;;0.70;0.30;;;;;;;19.86;49.96;101292.81;16121525;19;130310;-43
2022/10/22 14:16:27;;;;;;;1.13;0.38;;;;;;;19.84;49.78;101301.34;16118632;19;129022;-42
2022/10/22 14:21:49;;;;;;;0.60;0.40;;;;;;;19.84;50.03;101301.34;16119448;19;129572;-45
2022/10/22 14:27:13;;;;;;;1.60;0.40;;;;;;;19.83;50.23;101299.66;16115353;19;129224;-43
2022/10/22 14:32:34;;;;;;;3.00;0.47;;;;;;;19.81;50.02;101302.69;16128148;19;130504;-43
2022/10/22 14:37:57;;;;;;;2.60;0.65;;;;;;;19.81;50.09;101307.44;16131353;19;132107;-43
2022/10/22 14:43:27;;;;;;;4.10;1.00;;;;;;;19.80;50.75;101300.19;16131358;19;129558;-42
2022/10/22 14:48:49;;;;;;;8.18;0.75;;;;;;;19.80;50.41;101308.50;16134065;19;130816;-42
2022/10/22 14:54:10;;;;;;;12.85;0.90;;;;;;;19.84;50.54;101306.91;16131685;19;129751;-42
2022/10/22 14:59:32;;;;;;;6.68;0.80;;;;;;;19.83;51.01;101299.66;16133047;19;129369;-42
2022/10/22 15:04:54;;;;;;;8.70;0.93;;;;;;;19.84;50.70;101299.44;16130493;19;129682;-41
2022/10/22 15:10:15;;;;;;;3.47;0.73;;;;;;;19.85;50.90;101305.81;16130332;19;129698;-40
2022/10/22 15:15:40;;;;;;;5.78;0.93;;;;;;;19.86;50.82;101309.47;16130365;19;130721;-42
2022/10/22 15:21:11;;;;;;;10.00;1.05;;;;;;;19.89;50.91;101303.41;16129168;19;130509;-43
2022/10/22 15:26:33;;;;;;;5.68;1.17;;;;;;;19.92;51.14;101301.00;16129689;19;130050;-43
2022/10/22 15:32:02;;;;;;;10.85;1.08;;;;;;;19.94;51.09;101309.06;16131800;19;130248;-45
2022/10/22 15:37:24;;;;;;;6.93;0.95;;;;;;;19.94;50.98;101315.44;16128281;19;130093;-47
2022/10/22 15:42:45;;;;;;;11.18;0.98;;;;;;;19.93;51.31;101311.00;16128846;19;129201;-44
2022/10/22 15:48:07;;;;;;;11.68;1.35;;;;;;;19.90;50.74;101307.84;16128461;19;129382;-42
2022/10/22 15:53:31;;;;;;;11.88;1.20;;;;;;;19.88;51.08;101312.84;16126703;19;131847;-43
2022/10/22 15:58:56;;;;;;;8.60;1.20;;;;;;;19.86;50.89;101309.47;16129349;19;129216;-42
2022/10/22 16:04:18;;;;;;;6.63;1.10;;;;;;;19.83;50.83;101302.44;16129580;19;129631;-43
2022/10/22 16:09:39;;;;;;;7.72;0.70;;;;;;;19.80;50.72;101306.56;16129065;19;129501;-42
2022/10/22 16:15:01;;;;;;;4.00;0.80;;;;;;;19.80;50.94;101314.06;16128639;19;130962;-43
2022/10/22 16:20:23;;;;;;;5.03;1.00;;;;;;;19.76;50.88;101313.69;16125798;19;130279;-42
2022/10/22 16:25:45;;;;;;;7.00;1.10;;;;;;;19.76;50.89;101315.63;16123301;19;129386;-44
2022/10/22 16:31:08;;;;;;;4.25;0.70;;;;;;;19.74;50.83;101315.03;16124089;19;129502;-43
2022/10/22 16:36:30;;;;;;;4.75;0.85;;;;;;;19.73;50.72;101327.22;16124112;19;129439;-42
2022/10/22 16:41:52;;;;;;;4.03;0.98;;;;;;;19.71;50.74;101318.28;16124043;19;129592;-43
2022/10/22 16:47:13;;;;;;;5.15;0.70;;;;;;;19.68;50.58;101320.50;16126229;19;129410;-43
2022/10/22 16:52:35;;;;;;;1.52;0.47;;;;;;;19.68;50.53;101326.03;16120081;19;131043;-42
2022/10/22 16:57:57;;;;;;;34.35;2.47;;;;;;;19.67;50.55;101329.03;16122842;19;130861;-42
2022/10/22 17:03:19;;;;;;;24.90;1.38;;;;;;;19.69;51.39;101338.81;16124030;19;130037;-42
2022/10/22 17:08:44;;;;;;;14.00;1.42;;;;;;;19.80;51.71;101339.06;16123840;19;129602;-44
2022/10/22 17:14:06;;;;;;;19.95;2.38;;;;;;;19.90;51.10;101332.84;16121319;19;130794;-42
2022/10/22 17:19:28;;;;;;;22.67;1.63;;;;;;;20.05;51.69;101338.75;16122942;19;129515;-42
2022/10/22 17:25:25;;;;;;;8.95;1.40;;;;;;;20.38;50.76;101330.81;16121542;19;129545;-43
2022/10/22 17:30:47;;;;;;;15.17;1.60;;;;;;;20.76;50.17;101332.09;16122420;19;130724;-41
2022/10/22 17:36:11;;;;;;;17.42;1.27;;;;;;;21.02;50.06;101343.66;16119140;19;129307;-42
2022/10/22 17:41:35;;;;;;;12.95;1.48;;;;;;;21.20;49.61;101348.94;16111792;19;130690;-43
2022/10/22 17:46:59;;;;;;;14.27;1.50;;;;;;;21.29;49.26;101357.72;16120419;19;129557;-42
2022/10/22 17:52:20;;;;;;;9.18;1.70;;;;;;;21.32;49.70;101356.34;16120307;19;130111;-42
2022/10/22 17:57:42;;;;;;;12.82;1.45;;;;;;;21.26;49.44;101355.44;16119616;19;129563;-41
2022/10/22 18:03:04;;;;;;;10.20;1.50;;;;;;;21.20;49.48;101357.28;16119992;19;130094;-42
2022/10/22 18:08:26;;;;;;;16.52;0.98;;;;;;;21.16;49.88;101355.28;16129298;19;129872;-45
2022/10/22 18:13:52;;;;;;;117.70;6.50;;;;;;;21.09;50.01;101360.19;16133584;19;128964;-43
2022/10/22 18:19:16;;;;;;;21.77;2.13;;;;;;;21.01;49.97;101364.22;16133864;19;129423;-45
2022/10/22 18:24:38;;;;;;;13.73;1.10;;;;;;;20.94;50.42;101367.16;16136162;19;129903;-42
2022/10/22 18:30:03;;;;;;;19.17;1.40;;;;;;;20.88;50.28;101360.66;16134521;19;129555;-42
2022/10/22 18:35:25;;;;;;;16.45;2.30;;;;;;;20.82;50.44;101358.03;16134370;19;129523;-42
2022/10/22 18:40:48;;;;;;;19.92;2.10;;;;;;;20.79;50.95;101351.06;16133802;19;129954;-41
2022/10/22 18:46:10;;;;;;;6.90;1.55;;;;;;;20.79;50.68;101344.63;16134818;19;130291;-42
2022/10/22 18:51:33;;;;;;;16.15;1.48;;;;;;;20.79;50.73;101356.63;16134652;19;130388;-41
2022/10/22 18:56:58;;;;;;;6.38;0.95;;;;;;;20.79;50.94;101351.06;16132342;19;129095;-43
2022/10/22 19:02:23;;;;;;;14.57;1.63;;;;;;;20.83;50.88;101343.06;16131291;19;129157;-43
2022/10/22 19:07:45;;;;;;;7.50;1.30;;;;;;;20.89;50.53;101340.09;16129218;19;130586;-42
2022/10/22 19:13:07;;;;;;;13.07;1.00;;;;;;;20.97;50.69;101335.22;16127389;19;129498;-41
2022/10/22 19:18:29;;;;;;;7.20;1.10;;;;;;;21.00;50.45;101329.16;16129677;19;129550;-44
2022/10/22 19:23:53;;;;;;;6.63;0.70;;;;;;;21.03;50.85;101323.91;16131894;19;129694;-43
2022/10/22 19:29:17;;;;;;;11.32;1.10;;;;;;;21.09;50.30;101318.44;16130067;19;129787;-44
2022/10/22 19:34:39;;;;;;;5.47;0.88;;;;;;;21.13;50.28;101322.38;16128227;19;129678;-42
2022/10/22 19:40:03;;;;;;;4.38;0.90;;;;;;;21.17;50.30;101329.97;16130582;19;130732;-41
2022/10/22 19:45:25;;;;;;;4.03;0.70;;;;;;;21.21;50.63;101336.72;16128657;19;129348;-42
2022/10/22 19:50:47;;;;;;;16.60;1.15;;;;;;;21.26;50.31;101335.13;16127312;19;129856;-42
2022/10/22 19:56:10;;;;;;;10.98;1.30;;;;;;;21.29;50.84;101332.66;16126147;19;130676;-42
2022/10/22 20:01:31;;;;;;;10.38;1.30;;;;;;;21.34;50.67;101324.41;16126289;19;130232;-43
2022/10/22 20:06:54;;;;;;;9.25;1.38;;;;;;;21.38;50.75;101335.88;16127728;19;129762;-42
2022/10/22 20:12:15;;;;;;;14.23;1.63;;;;;;;21.38;50.96;101347.00;16125007;19;130113;-41
2022/10/22 20:17:37;;;;;;;8.85;1.52;;;;;;;21.37;51.04;101348.09;16122496;19;129937;-43
2022/10/22 20:22:59;;;;;;;9.63;1.38;;;;;;;21.34;51.01;101329.97;16129358;19;129472;-44
2022/10/22 20:28:21;;;;;;;24.65;2.88;;;;;;;21.31;51.16;101335.19;16127526;19;129695;-42
2022/10/22 20:33:43;;;;;;;30.00;3.17;;;;;;;21.28;51.07;101344.06;16125685;19;130204;-44
2022/10/22 20:39:07;;;;;;;16.17;1.80;;;;;;;21.21;51.29;101352.59;16127267;19;129798;-41
2022/10/22 20:44:29;;;;;;;14.05;1.60;;;;;;;21.14;51.25;101363.88;16121912;19;130778;-42
2022/10/22 20:49:50;;;;;;;17.77;1.70;;;;;;;21.06;51.48;101351.22;16110090;19;129895;-43
2022/10/22 20:55:13;;;;;;;8.88;1.25;;;;;;;21.00;51.63;101340.28;16108833;19;129288;-43
2022/10/22 21:00:56;;;;;;;16.58;1.67;;;;;;;20.93;51.71;101356.25;16116041;19;129737;-43
2022/10/22 21:06:21;;;;;;;12.45;1.80;;;;;;;20.86;51.49;101350.91;16123936;19;129769;-41
2022/10/22 21:11:44;;;;;;;7.28;1.02;;;;;;;20.80;51.46;101347.16;16125628;19;130126;-42
2022/10/22 21:17:07;;;;;;;7.93;1.13;;;;;;;20.78;51.46;101343.81;16125209;19;129683;-42
2022/10/22 21:22:28;;;;;;;6.53;0.95;;;;;;;20.72;51.30;101342.84;16119057;19;129292;-44
2022/10/22 21:27:50;;;;;;;5.50;1.20;;;;;;;20.68;51.24;101338.00;16119516;19;130592;-43
2022/10/22 21:33:12;;;;;;;2.47;0.88;;;;;;;20.64;51.43;101332.09;16120129;19;129456;-41
2022/10/22 21:38:35;;;;;;;4.38;0.88;;;;;;;20.61;51.52;101338.19;16125150;19;129972;-42
2022/10/22 21:43:56;;;;;;;4.88;0.70;;;;;;;20.58;51.27;101328.41;16118647;19;134587;-43
2022/10/22 21:49:18;;;;;;;4.22;0.90;;;;;;;20.55;51.35;101334.47;16117817;19;129525;-43
2022/10/22 21:54:40;;;;;;;3.20;1.02;;;;;;;20.53;51.60;101333.88;16117426;19;129369;-41
2022/10/22 22:00:05;;;;;;;5.90;1.02;;;;;;;20.52;51.24;101325.78;16119561;19;129575;-43
2022/10/22 22:05:27;;;;;;;5.07;0.95;;;;;;;20.50;51.16;101333.50;16118876;19;129699;-41
2022/10/22 22:10:50;;;;;;;2.65;0.60;;;;;;;20.49;51.45;101335.47;16115884;19;129622;-42
2022/10/22 22:16:15;;;;;;;3.78;0.70;;;;;;;20.49;51.53;101335.47;16110784;19;129512;-42
2022/10/22 22:21:38;;;;;;;3.10;0.90;;;;;;;20.46;51.20;101324.84;16115835;19;131263;-43
2022/10/22 22:27:00;;;;;;;1.73;0.50;;;;;;;20.43;51.15;101314.25;16116505;19;129937;-42
2022/10/22 22:32:21;;;;;;;2.97;0.50;;;;;;;20.41;51.04;101313.63;16114779;19;131413;-43
2022/10/22 22:37:43;;;;;;;2.15;0.70;;;;;;;20.39;51.39;101321.38;16114497;19;129532;-45
2022/10/22 22:43:06;;;;;;;3.72;0.60;;;;;;;20.38;51.35;101316.91;16116713;19;130270;-41
2022/10/22 22:48:28;;;;;;;1.95;0.60;;;;;;;20.36;50.89;101310.75;16115027;19;129775;-41
2022/10/22 22:53:50;;;;;;;4.32;0.60;;;;;;;20.34;51.34;101305.44;16125200;19;129579;-41
2022/10/22 22:59:12;;;;;;;1.77;0.40;;;;;;;20.33;50.86;101308.47;16131354;19;129806;-41
2022/10/22 23:04:34;;;;;;;1.50;0.63;;;;;;;20.31;50.88;101303.16;16129798;19;130046;-41
2022/10/22 23:09:56;;;;;;;2.60;0.70;;;;;;;20.28;51.19;101296.19;16131256;19;129407;-41
2022/10/22 23:15:17;;;;;;;2.75;0.50;;;;;;;20.27;50.83;101299.19;16128889;19;129507;-41
2022/10/22 23:20:39;;;;;;;3.15;0.55;;;;;;;20.25;50.97;101291.09;16131863;19;129702;-43
2022/10/22 23:26:01;;;;;;;2.22;0.68;;;;;;;20.24;50.75;101281.09;16129025;19;129556;-41
2022/10/22 23:31:23;;;;;;;2.67;0.70;;;;;;;20.21;50.88;101273.25;16128561;19;129336;-42
2022/10/22 23:36:45;;;;;;;1.35;0.55;;;;;;;20.21;50.86;101273.25;16129376;19;130115;-40
2022/10/22 23:42:06;;;;;;;0.80;0.30;;;;;;;20.20;50.88;101267.94;16128096;19;129852;-41
2022/10/22 23:47:28;;;;;;;1.35;0.38;;;;;;;20.18;51.06;101270.97;16127516;19;129647;-40
2022/10/22 23:52:50;;;;;;;1.15;0.45;;;;;;;20.18;50.67;101264.56;16126834;19;130630;-41
2022/10/22 23:58:12;;;;;;;2.38;0.40;;;;;;;20.16;50.84;101252.84;16125667;19;129272;-41
